El Mirar II — ZJL8542 — position and weather

sailwx.info

Track history (hours):
 
Tides and Currents Weather Stations Pressure Air Temp Water Temp Dewpoint Dewpoint Depression Visibility Wind Speed Wind Dir Waves Ship Positions

El Mirar II

Last reported at 2018-Jun-20 14:23 UTC. Time now 2018-Jun-25 15:44 UTC.
Position N 48°15' W 124°03'.

Length 34 m; draft 2.3 m.

Type: Pleasure craft. MMSI: 378111833.

Date/timePositionNaut miles runAvg speedWind from/ knotsBaromVisibWave heightAir tempDewpointWater temp
2018-Jun-20 14:23N 48°15' W 124°03'512.2
2018-Jun-20 13:58N 48°17' W 124°10'611.4
2018-Jun-20 13:29N 48°20' W 124°17'611.3
2018-Jun-20 12:59N 48°22' W 124°25'511.3
2018-Jun-20 12:30N 48°24' W 124°32'611.0
2018-Jun-20 12:00N 48°26' W 124°40'710.3
2018-Jun-20 11:22N 48°24' W 124°49'811.8
2018-Jun-20 10:42N 48°17' W 124°54'312.7
2018-Jun-20 10:30N 48°14' W 124°55'2311.5
2018-Jun-20 08:30N 47°51' W 125°00'611.4
2018-Jun-20 07:59N 47°46' W 125°01'611.4
2018-Jun-20 07:29N 47°40' W 125°02'2211.4
2018-Jun-20 05:35N 47°18' W 125°03'111.5
2018-Jun-20 05:30N 47°17' W 125°03'611.6
2018-Jun-20 05:00N 47°12' W 125°03'611.4
2018-Jun-20 04:30N 47°06' W 125°02'611.1
2018-Jun-20 04:00N 47°00' W 125°02'811.0
2018-Jun-20 03:19N 46°53' W 125°02'411.2
2018-Jun-20 03:00N 46°49' W 125°02'511.1
2018-Jun-20 02:31N 46°44' W 125°02'610.8
2018-Jun-20 02:00N 46°38' W 125°02'510.8
2018-Jun-20 01:30N 46°33' W 125°02'510.8
2018-Jun-20 01:00N 46°27' W 125°02'611.2
2018-Jun-20 00:30N 46°22' W 125°02'510.9
2018-Jun-20 00:00N 46°16' W 125°01'510.9
2018-Jun-19 23:31N 46°11' W 125°01'610.8
2018-Jun-19 23:00N 46°06' W 125°01'510.8
2018-Jun-19 22:30N 46°00' W 125°02'510.9
2018-Jun-19 22:01N 45°55' W 125°02'1011.0
2018-Jun-19 21:07N 45°45' W 125°02'210.6
2018-Jun-19 20:55N 45°43' W 125°03'410.6
2018-Jun-19 20:30N 45°39' W 125°03'510.7
2018-Jun-19 20:01N 45°33' W 125°03'511.0
2018-Jun-19 19:31N 45°28' W 125°03'510.9
2018-Jun-19 19:01N 45°22' W 125°03'611.1
2018-Jun-19 18:31N 45°17' W 125°03'911.7
2018-Jun-19 17:45N 45°08' W 125°04'311.5
2018-Jun-19 17:30N 45°05' W 125°04'611.4
2018-Jun-19 17:00N 44°59' W 125°04'1011.1
2018-Jun-19 16:07N 44°49' W 125°03'111.3
2018-Jun-19 16:00N 44°48' W 125°03'811.3
2018-Jun-19 15:16N 44°40' W 125°03'311.1
2018-Jun-19 15:00N 44°37' W 125°04'711.2
2018-Jun-19 14:22N 44°30' W 125°04'411.0
2018-Jun-19 14:00N 44°26' W 125°04'611.1
2018-Jun-19 13:29N 44°20' W 125°03'611.3
2018-Jun-19 13:00N 44°15' W 125°03'611.2
2018-Jun-19 12:30N 44°09' W 125°03'611.0
2018-Jun-19 11:58N 44°03' W 125°02'611.2
2018-Jun-19 11:28N 43°58' W 125°02'511.4
2018-Jun-19 11:00N 43°52' W 125°02'1611.1
2018-Jun-19 09:36N 43°37' W 125°01'210.6
2018-Jun-19 09:26N 43°35' W 125°01'510.7
2018-Jun-19 09:00N 43°30' W 125°01'910.7
2018-Jun-19 08:12N 43°22' W 125°00'210.7
2018-Jun-19 08:00N 43°20' W 125°00'610.7
2018-Jun-19 07:24N 43°13' W 124°60'710.7
2018-Jun-19 06:47N 43°07' W 124°59'2710.7
2018-Jun-19 04:18N 42°40' W 124°57'24410.4
2018-Jun-18 04:53N 38°43' W 123°39'410.4
2018-Jun-18 04:30N 38°40' W 123°36'510.5
2018-Jun-18 04:00N 38°35' W 123°33'510.3
2018-Jun-18 03:30N 38°31' W 123°30'510.1
2018-Jun-18 03:00N 38°26' W 123°27'510.0
2018-Jun-18 02:30N 38°22' W 123°23'5 9.6
2018-Jun-18 02:00N 38°18' W 123°20'5 9.6
2018-Jun-18 01:30N 38°13' W 123°17'5 9.9
2018-Jun-18 01:00N 38°09' W 123°14'510.8
2018-Jun-18 00:30N 38°05' W 123°10'611.6
2018-Jun-18 00:00N 38°00' W 123°06'611.8
2018-Jun-17 23:30N 37°56' W 123°00'611.4
2018-Jun-17 23:00N 37°53' W 122°54'611.1
2018-Jun-17 22:26N 37°50' W 122°47'511.2
2018-Jun-17 22:00N 37°48' W 122°42'510.5
2018-Jun-17 21:30N 37°47' W 122°35'4 8.7
2018-Jun-17 21:00N 37°49' W 122°30'3 6.1
2018-Jun-17 20:30N 37°52' W 122°29'0 0.6
2018-Jun-17 19:58N 37°52' W 122°29'0 0.0
2018-Jun-17 19:25N 37°52' W 122°29'0 0.0
2018-Jun-17 18:55N 37°52' W 122°29'0 0.0
2018-Jun-17 18:22N 37°52' W 122°29'0 0.0
2018-Jun-17 17:53N 37°52' W 122°29'0 0.0
2018-Jun-17 17:28N 37°52' W 122°29'0 0.0
2018-Jun-17 16:58N 37°52' W 122°29'0 0.0
2018-Jun-17 16:28N 37°52' W 122°29'0 0.0
2018-Jun-17 15:58N 37°52' W 122°29'0 0.0
2018-Jun-17 15:22N 37°52' W 122°29'0 0.0
2018-Jun-17 14:58N 37°52' W 122°29'0 0.0
2018-Jun-17 14:28N 37°52' W 122°29'0 0.0
2018-Jun-17 13:58N 37°52' W 122°29'0 0.0
2018-Jun-17 13:28N 37°52' W 122°29'0 0.0
2018-Jun-17 12:58N 37°52' W 122°29'0 0.0
2018-Jun-17 12:29N 37°52' W 122°29'0 0.0
2018-Jun-17 11:58N 37°52' W 122°29'0 0.0
2018-Jun-17 11:28N 37°52' W 122°29'0 0.0
2018-Jun-17 10:58N 37°52' W 122°29'0 0.0
2018-Jun-17 10:28N 37°52' W 122°29'0 0.0
2018-Jun-17 09:58N 37°52' W 122°29'0 0.0
2018-Jun-17 09:28N 37°52' W 122°29'0 0.0
2018-Jun-17 08:58N 37°52' W 122°29'0 0.0
2018-Jun-17 08:28N 37°52' W 122°29'0 0.0
2018-Jun-17 07:58N 37°52' W 122°29'0 0.0
2018-Jun-17 07:25N 37°52' W 122°29'0 0.0
2018-Jun-17 06:58N 37°52' W 122°29'0 0.0
2018-Jun-17 06:25N 37°52' W 122°29'0 0.0
2018-Jun-17 05:58N 37°52' W 122°29'0 0.0
2018-Jun-17 05:28N 37°52' W 122°29'0 0.0
2018-Jun-17 04:58N 37°52' W 122°29'0 0.0
2018-Jun-17 04:28N 37°52' W 122°29'0 0.0
2018-Jun-17 03:58N 37°52' W 122°29'0 0.0
2018-Jun-17 03:28N 37°52' W 122°29'0 0.0
2018-Jun-17 02:58N 37°52' W 122°29'0 0.0
2018-Jun-17 02:28N 37°52' W 122°29'0 0.0
2018-Jun-17 01:52N 37°52' W 122°29'0 0.0
2018-Jun-17 01:28N 37°52' W 122°29'0 0.0
2018-Jun-17 00:52N 37°52' W 122°29'0 0.0
2018-Jun-17 00:28N 37°52' W 122°29'0 0.0
2018-Jun-16 23:58N 37°52' W 122°29'0 0.0
2018-Jun-16 23:28N 37°52' W 122°29'0 0.0
2018-Jun-16 22:58N 37°52' W 122°29'0 0.0
2018-Jun-16 22:28N 37°52' W 122°29'0 0.0
2018-Jun-16 21:55N 37°52' W 122°29'0 0.0
2018-Jun-16 21:28N 37°52' W 122°29'0 0.0
2018-Jun-16 20:58N 37°52' W 122°29'0 0.0
2018-Jun-16 20:28N 37°52' W 122°29'0 0.0
2018-Jun-16 19:58N 37°52' W 122°29'0 0.0
2018-Jun-16 19:28N 37°52' W 122°29'0 0.0
2018-Jun-16 18:58N 37°52' W 122°29'0 0.0
2018-Jun-16 18:28N 37°52' W 122°29'0 0.0
2018-Jun-16 17:58N 37°52' W 122°29'0 0.0
2018-Jun-16 17:28N 37°52' W 122°29'0 0.0
2018-Jun-16 16:58N 37°52' W 122°29'0 0.0
2018-Jun-16 16:28N 37°52' W 122°29'0 0.0
2018-Jun-16 15:58N 37°52' W 122°29'0 0.0
2018-Jun-16 15:28N 37°52' W 122°29'0 0.0
2018-Jun-16 14:58N 37°52' W 122°29'0 0.0
2018-Jun-16 14:28N 37°52' W 122°29'0 0.0
2018-Jun-16 13:58N 37°52' W 122°29'0 0.0
2018-Jun-16 13:28N 37°52' W 122°29'0 0.0
2018-Jun-16 12:58N 37°52' W 122°29'0 0.0
2018-Jun-16 12:28N 37°52' W 122°29'0 0.0
2018-Jun-16 11:58N 37°52' W 122°29'0 0.0
2018-Jun-16 11:28N 37°52' W 122°29'0 0.0
2018-Jun-16 10:58N 37°52' W 122°29'0 0.0
2018-Jun-16 10:28N 37°52' W 122°29'0 0.0
2018-Jun-16 09:58N 37°52' W 122°29'0 0.0
2018-Jun-16 09:28N 37°52' W 122°29'0 0.0
2018-Jun-16 08:58N 37°52' W 122°29'0 0.0
2018-Jun-16 08:28N 37°52' W 122°29'0 0.0
2018-Jun-16 07:58N 37°52' W 122°29'0 0.0
2018-Jun-16 07:28N 37°52' W 122°29'0 0.0
2018-Jun-16 06:58N 37°52' W 122°29'0 0.0
2018-Jun-16 06:28N 37°52' W 122°29'0 0.0
2018-Jun-16 05:58N 37°52' W 122°29'0 0.0
2018-Jun-16 05:28N 37°52' W 122°29'0 0.0
2018-Jun-16 04:58N 37°52' W 122°29'0 0.0
2018-Jun-16 04:28N 37°52' W 122°29'0 0.0
2018-Jun-16 03:58N 37°52' W 122°29'0 0.0
2018-Jun-16 03:28N 37°52' W 122°29'0 0.0
2018-Jun-16 02:58N 37°52' W 122°29'0 0.0
2018-Jun-16 02:28N 37°52' W 122°29'0 0.0
2018-Jun-16 01:58N 37°52' W 122°29'0 0.0
2018-Jun-16 01:28N 37°52' W 122°29'0 0.0
2018-Jun-16 00:58N 37°52' W 122°29'0 0.0
2018-Jun-16 00:28N 37°52' W 122°29'0 0.0
2018-Jun-15 23:58N 37°52' W 122°29'0 0.0
2018-Jun-15 23:28N 37°52' W 122°29'0 0.0
2018-Jun-15 22:58N 37°52' W 122°29'0 0.0
2018-Jun-15 22:29N 37°52' W 122°29'2 3.9
2018-Jun-15 22:00N 37°51' W 122°27'611.5
2018-Jun-15 21:30N 37°48' W 122°21'4 7.0
2018-Jun-15 21:01N 37°48' W 122°17'0 0.0
2018-Jun-15 20:30N 37°48' W 122°17'0 0.0
2018-Jun-15 20:00N 37°48' W 122°17'0 0.0
2018-Jun-15 19:30N 37°48' W 122°17'0 0.0
2018-Jun-15 19:00N 37°48' W 122°17'0 0.0
2018-Jun-15 18:31N 37°48' W 122°17'0 0.0
2018-Jun-15 18:01N 37°48' W 122°17'1 2.8
2018-Jun-15 17:30N 37°48' W 122°18'611.6
2018-Jun-15 17:00N 37°49' W 122°25'1 2.3
2018-Jun-15 16:30N 37°49' W 122°24'4 8.1
2018-Jun-15 16:00N 37°49' W 122°29'4 8.7
2018-Jun-15 15:30N 37°46' W 122°33'610.3
2018-Jun-15 14:56N 37°40' W 122°34'410.7
2018-Jun-15 14:30N 37°36' W 122°34'510.3
2018-Jun-15 14:01N 37°31' W 122°34'510.0
2018-Jun-15 13:30N 37°26' W 122°32'510.1
2018-Jun-15 13:01N 37°21' W 122°30'510.3
2018-Jun-15 12:30N 37°16' W 122°29'6 9.9
2018-Jun-15 11:56N 37°11' W 122°27'12711.5
2018-Jun-15 00:52N 35°20' W 121°10'512.8
2018-Jun-15 00:31N 35°16' W 121°07'712.7
2018-Jun-14 23:59N 35°10' W 121°03'612.5
2018-Jun-14 23:30N 35°05' W 120°59'612.4
2018-Jun-14 23:01N 34°59' W 120°56'612.3
2018-Jun-14 22:31N 34°54' W 120°53'612.3
2018-Jun-14 22:00N 34°48' W 120°50'612.3
2018-Jun-14 21:30N 34°42' W 120°47'612.2
2018-Jun-14 21:00N 34°36' W 120°45'612.0
2018-Jun-14 20:31N 34°31' W 120°41'612.2
2018-Jun-14 20:00N 34°27' W 120°36'612.9
2018-Jun-14 19:30N 34°24' W 120°29'713.5
2018-Jun-14 19:01N 34°21' W 120°22'713.6
2018-Jun-14 18:28N 34°20' W 120°13'613.1
2018-Jun-14 18:00N 34°19' W 120°05'713.3
2018-Jun-14 17:29N 34°19' W 119°57'612.7
2018-Jun-14 16:59N 34°18' W 119°50'612.8
2018-Jun-14 16:30N 34°17' W 119°42'712.8
2018-Jun-14 15:58N 34°16' W 119°34'612.8
2018-Jun-14 15:29N 34°15' W 119°26'612.7
2018-Jun-14 15:00N 34°14' W 119°19'3 5.7
2018-Jun-14 14:30N 34°14' W 119°16'0 0.0
2018-Jun-14 12:40N 34°14' W 119°16'0 0.0
2018-Jun-14 12:22N 34°14' W 119°16'0 0.0
2018-Jun-14 11:55N 34°14' W 119°16'0 0.0
2018-Jun-14 11:25N 34°14' W 119°16'0 0.0
2018-Jun-14 10:49N 34°14' W 119°16'0 0.0
2018-Jun-14 10:13N 34°14' W 119°16'0 0.0
2018-Jun-14 09:58N 34°14' W 119°16'0 0.0
2018-Jun-14 09:22N 34°14' W 119°16'0 0.0
2018-Jun-14 08:55N 34°14' W 119°16'0 0.0
2018-Jun-14 08:16N 34°14' W 119°16'0 0.0
2018-Jun-14 07:58N 34°14' W 119°16'0 0.0
2018-Jun-14 06:52N 34°14' W 119°16'0 0.0
2018-Jun-14 06:28N 34°14' W 119°16'0 0.0
2018-Jun-14 05:49N 34°14' W 119°16'0 0.0
2018-Jun-14 05:28N 34°14' W 119°16'0 0.0
2018-Jun-14 04:46N 34°14' W 119°16'0 0.0
2018-Jun-14 04:25N 34°14' W 119°16'0 0.0
2018-Jun-14 03:55N 34°14' W 119°16'0 0.0
2018-Jun-14 03:28N 34°14' W 119°16'0 0.0
2018-Jun-14 02:58N 34°14' W 119°16'0 0.0
2018-Jun-14 02:13N 34°14' W 119°16'0 0.0
2018-Jun-14 01:58N 34°14' W 119°16'0 0.0
2018-Jun-14 01:28N 34°14' W 119°16'0 0.0
2018-Jun-14 00:55N 34°14' W 119°16'0 0.0
2018-Jun-14 00:28N 34°14' W 119°16'0 0.0
2018-Jun-13 23:58N 34°14' W 119°16'0 0.0
2018-Jun-13 23:16N 34°14' W 119°16'0 0.0
2018-Jun-13 22:58N 34°14' W 119°16'0 0.0
2018-Jun-13 22:28N 34°14' W 119°16'0 0.0
2018-Jun-13 21:58N 34°14' W 119°16'0 0.0
2018-Jun-13 21:10N 34°14' W 119°16'0 0.0
2018-Jun-13 20:58N 34°14' W 119°16'0 0.0
2018-Jun-13 19:40N 34°14' W 119°16'0 0.0
2018-Jun-13 19:19N 34°14' W 119°16'0 0.0
2018-Jun-13 18:58N 34°14' W 119°16'0 0.0
2018-Jun-13 18:28N 34°14' W 119°16'0 0.0
2018-Jun-13 17:43N 34°14' W 119°16'0 0.0
2018-Jun-13 17:25N 34°14' W 119°16'0 0.0
2018-Jun-13 16:58N 34°14' W 119°16'0 0.0
2018-Jun-13 16:16N 34°14' W 119°16'0 0.0
2018-Jun-13 15:52N 34°14' W 119°16'0 0.0
2018-Jun-13 14:55N 34°14' W 119°16'0 0.0
2018-Jun-13 14:28N 34°14' W 119°16'0 0.0
2018-Jun-13 12:01N 34°14' W 119°16'0 0.0
2018-Jun-13 11:49N 34°14' W 119°16'0 0.0
2018-Jun-13 11:25N 34°14' W 119°16'0 0.0
2018-Jun-13 08:49N 34°14' W 119°16'0 0.0
2018-Jun-13 08:19N 34°14' W 119°16'0 0.0
2018-Jun-13 07:58N 34°14' W 119°16'0 0.0
2018-Jun-13 05:49N 34°14' W 119°16'0 0.0
2018-Jun-13 05:28N 34°14' W 119°16'0 0.0
2018-Jun-13 04:55N 34°14' W 119°16'0 0.0
2018-Jun-13 04:16N 34°14' W 119°16'0 0.0
2018-Jun-13 02:16N 34°14' W 119°16'0 0.0
2018-Jun-13 01:52N 34°14' W 119°16'0 0.0
2018-Jun-13 01:28N 34°14' W 119°16'0 0.0
2018-Jun-13 00:58N 34°14' W 119°16'0 0.0
2018-Jun-13 00:25N 34°14' W 119°16'0 0.0
2018-Jun-13 00:00N 34°14' W 119°16'0 0.0
2018-Jun-12 23:30N 34°14' W 119°16'0 0.0
2018-Jun-12 23:00N 34°14' W 119°16'0 0.0
2018-Jun-12 22:30N 34°14' W 119°16'0 0.0
2018-Jun-12 22:00N 34°14' W 119°16'0 0.0
2018-Jun-12 21:31N 34°14' W 119°16'0 0.0
2018-Jun-12 21:00N 34°14' W 119°16'0 0.0
2018-Jun-12 20:30N 34°14' W 119°16'0 0.0
2018-Jun-12 20:00N 34°14' W 119°16'0 0.0
2018-Jun-12 19:30N 34°14' W 119°16'0 0.0
2018-Jun-12 19:00N 34°14' W 119°16'0 0.3
2018-Jun-12 18:28N 34°15' W 119°16'4 7.6
2018-Jun-12 17:59N 34°11' W 119°18'611.8
2018-Jun-12 17:30N 34°06' W 119°16'713.2
2018-Jun-12 17:00N 34°01' W 119°10'611.3
2018-Jun-12 16:30N 33°57' W 119°06'611.4
2018-Jun-12 16:00N 33°54' W 119°00'611.3
2018-Jun-12 15:30N 33°50' W 118°55'611.4
2018-Jun-12 15:00N 33°47' W 118°49'611.5
2018-Jun-12 14:29N 33°43' W 118°44'811.3
2018-Jun-12 13:46N 33°38' W 118°36'311.2
2018-Jun-12 13:30N 33°36' W 118°34'611.3
2018-Jun-12 13:00N 33°32' W 118°29'2011.3
2018-Jun-12 11:13N 33°19' W 118°10'511.3
2018-Jun-12 10:47N 33°16' W 118°06'311.1
2018-Jun-12 10:29N 33°13' W 118°03'511.2
2018-Jun-12 10:00N 33°10' W 117°58'1211.2
2018-Jun-12 08:58N 33°02' W 117°48'510.9
2018-Jun-12 08:30N 32°58' W 117°44'611.1
2018-Jun-12 07:59N 32°55' W 117°38'511.0
2018-Jun-12 07:31N 32°51' W 117°34'611.1
2018-Jun-12 07:00N 32°47' W 117°29'611.4
2018-Jun-12 06:31N 32°44' W 117°24'  
Track history (hours):
 
Tides and Currents Weather Stations Pressure Air Temp Water Temp Dewpoint Dewpoint Depression Visibility Wind Speed Wind Dir Waves Ship Positions

El Mirar II

Last reported at 2018-Jun-20 14:23 UTC. Time now 2018-Jun-25 15:44 UTC.
Position N 48°15' W 124°03'.

Length 34 m; draft 2.3 m.

Type: Pleasure craft. MMSI: 378111833.

Date/timePositionNaut miles runAvg speedWind from/ knotsBaromVisibWave heightAir tempDewpointWater temp
2018-Jun-20 14:23N 48°15' W 124°03'512.2
2018-Jun-20 13:58N 48°17' W 124°10'611.4
2018-Jun-20 13:29N 48°20' W 124°17'611.3
2018-Jun-20 12:59N 48°22' W 124°25'511.3
2018-Jun-20 12:30N 48°24' W 124°32'611.0
2018-Jun-20 12:00N 48°26' W 124°40'710.3
2018-Jun-20 11:22N 48°24' W 124°49'811.8
2018-Jun-20 10:42N 48°17' W 124°54'312.7
2018-Jun-20 10:30N 48°14' W 124°55'2311.5
2018-Jun-20 08:30N 47°51' W 125°00'611.4
2018-Jun-20 07:59N 47°46' W 125°01'611.4
2018-Jun-20 07:29N 47°40' W 125°02'2211.4
2018-Jun-20 05:35N 47°18' W 125°03'111.5
2018-Jun-20 05:30N 47°17' W 125°03'611.6
2018-Jun-20 05:00N 47°12' W 125°03'611.4
2018-Jun-20 04:30N 47°06' W 125°02'611.1
2018-Jun-20 04:00N 47°00' W 125°02'811.0
2018-Jun-20 03:19N 46°53' W 125°02'411.2
2018-Jun-20 03:00N 46°49' W 125°02'511.1
2018-Jun-20 02:31N 46°44' W 125°02'610.8
2018-Jun-20 02:00N 46°38' W 125°02'510.8
2018-Jun-20 01:30N 46°33' W 125°02'510.8
2018-Jun-20 01:00N 46°27' W 125°02'611.2
2018-Jun-20 00:30N 46°22' W 125°02'510.9
2018-Jun-20 00:00N 46°16' W 125°01'510.9
2018-Jun-19 23:31N 46°11' W 125°01'610.8
2018-Jun-19 23:00N 46°06' W 125°01'510.8
2018-Jun-19 22:30N 46°00' W 125°02'510.9
2018-Jun-19 22:01N 45°55' W 125°02'1011.0
2018-Jun-19 21:07N 45°45' W 125°02'210.6
2018-Jun-19 20:55N 45°43' W 125°03'410.6
2018-Jun-19 20:30N 45°39' W 125°03'510.7
2018-Jun-19 20:01N 45°33' W 125°03'511.0
2018-Jun-19 19:31N 45°28' W 125°03'510.9
2018-Jun-19 19:01N 45°22' W 125°03'611.1
2018-Jun-19 18:31N 45°17' W 125°03'911.7
2018-Jun-19 17:45N 45°08' W 125°04'311.5
2018-Jun-19 17:30N 45°05' W 125°04'611.4
2018-Jun-19 17:00N 44°59' W 125°04'1011.1
2018-Jun-19 16:07N 44°49' W 125°03'111.3
2018-Jun-19 16:00N 44°48' W 125°03'811.3
2018-Jun-19 15:16N 44°40' W 125°03'311.1
2018-Jun-19 15:00N 44°37' W 125°04'711.2
2018-Jun-19 14:22N 44°30' W 125°04'411.0
2018-Jun-19 14:00N 44°26' W 125°04'611.1
2018-Jun-19 13:29N 44°20' W 125°03'611.3
2018-Jun-19 13:00N 44°15' W 125°03'611.2
2018-Jun-19 12:30N 44°09' W 125°03'611.0
2018-Jun-19 11:58N 44°03' W 125°02'611.2
2018-Jun-19 11:28N 43°58' W 125°02'511.4
2018-Jun-19 11:00N 43°52' W 125°02'1611.1
2018-Jun-19 09:36N 43°37' W 125°01'210.6
2018-Jun-19 09:26N 43°35' W 125°01'510.7
2018-Jun-19 09:00N 43°30' W 125°01'910.7
2018-Jun-19 08:12N 43°22' W 125°00'210.7
2018-Jun-19 08:00N 43°20' W 125°00'610.7
2018-Jun-19 07:24N 43°13' W 124°60'710.7
2018-Jun-19 06:47N 43°07' W 124°59'2710.7
2018-Jun-19 04:18N 42°40' W 124°57'24410.4
2018-Jun-18 04:53N 38°43' W 123°39'410.4
2018-Jun-18 04:30N 38°40' W 123°36'510.5
2018-Jun-18 04:00N 38°35' W 123°33'510.3
2018-Jun-18 03:30N 38°31' W 123°30'510.1
2018-Jun-18 03:00N 38°26' W 123°27'510.0
2018-Jun-18 02:30N 38°22' W 123°23'5 9.6
2018-Jun-18 02:00N 38°18' W 123°20'5 9.6
2018-Jun-18 01:30N 38°13' W 123°17'5 9.9
2018-Jun-18 01:00N 38°09' W 123°14'510.8
2018-Jun-18 00:30N 38°05' W 123°10'611.6
2018-Jun-18 00:00N 38°00' W 123°06'611.8
2018-Jun-17 23:30N 37°56' W 123°00'611.4
2018-Jun-17 23:00N 37°53' W 122°54'611.1
2018-Jun-17 22:26N 37°50' W 122°47'511.2
2018-Jun-17 22:00N 37°48' W 122°42'510.5
2018-Jun-17 21:30N 37°47' W 122°35'4 8.7
2018-Jun-17 21:00N 37°49' W 122°30'3 6.1
2018-Jun-17 20:30N 37°52' W 122°29'0 0.6
2018-Jun-17 19:58N 37°52' W 122°29'0 0.0
2018-Jun-17 19:25N 37°52' W 122°29'0 0.0
2018-Jun-17 18:55N 37°52' W 122°29'0 0.0
2018-Jun-17 18:22N 37°52' W 122°29'0 0.0
2018-Jun-17 17:53N 37°52' W 122°29'0 0.0
2018-Jun-17 17:28N 37°52' W 122°29'0 0.0
2018-Jun-17 16:58N 37°52' W 122°29'0 0.0
2018-Jun-17 16:28N 37°52' W 122°29'0 0.0
2018-Jun-17 15:58N 37°52' W 122°29'0 0.0
2018-Jun-17 15:22N 37°52' W 122°29'0 0.0
2018-Jun-17 14:58N 37°52' W 122°29'0 0.0
2018-Jun-17 14:28N 37°52' W 122°29'0 0.0
2018-Jun-17 13:58N 37°52' W 122°29'0 0.0
2018-Jun-17 13:28N 37°52' W 122°29'0 0.0
2018-Jun-17 12:58N 37°52' W 122°29'0 0.0
2018-Jun-17 12:29N 37°52' W 122°29'0 0.0
2018-Jun-17 11:58N 37°52' W 122°29'0 0.0
2018-Jun-17 11:28N 37°52' W 122°29'0 0.0
2018-Jun-17 10:58N 37°52' W 122°29'0 0.0
2018-Jun-17 10:28N 37°52' W 122°29'0 0.0
2018-Jun-17 09:58N 37°52' W 122°29'0 0.0
2018-Jun-17 09:28N 37°52' W 122°29'0 0.0
2018-Jun-17 08:58N 37°52' W 122°29'0 0.0
2018-Jun-17 08:28N 37°52' W 122°29'0 0.0
2018-Jun-17 07:58N 37°52' W 122°29'0 0.0
2018-Jun-17 07:25N 37°52' W 122°29'0 0.0
2018-Jun-17 06:58N 37°52' W 122°29'0 0.0
2018-Jun-17 06:25N 37°52' W 122°29'0 0.0
2018-Jun-17 05:58N 37°52' W 122°29'0 0.0
2018-Jun-17 05:28N 37°52' W 122°29'0 0.0
2018-Jun-17 04:58N 37°52' W 122°29'0 0.0
2018-Jun-17 04:28N 37°52' W 122°29'0 0.0
2018-Jun-17 03:58N 37°52' W 122°29'0 0.0
2018-Jun-17 03:28N 37°52' W 122°29'0 0.0
2018-Jun-17 02:58N 37°52' W 122°29'0 0.0
2018-Jun-17 02:28N 37°52' W 122°29'0 0.0
2018-Jun-17 01:52N 37°52' W 122°29'0 0.0
2018-Jun-17 01:28N 37°52' W 122°29'0 0.0
2018-Jun-17 00:52N 37°52' W 122°29'0 0.0
2018-Jun-17 00:28N 37°52' W 122°29'0 0.0
2018-Jun-16 23:58N 37°52' W 122°29'0 0.0
2018-Jun-16 23:28N 37°52' W 122°29'0 0.0
2018-Jun-16 22:58N 37°52' W 122°29'0 0.0
2018-Jun-16 22:28N 37°52' W 122°29'0 0.0
2018-Jun-16 21:55N 37°52' W 122°29'0 0.0
2018-Jun-16 21:28N 37°52' W 122°29'0 0.0
2018-Jun-16 20:58N 37°52' W 122°29'0 0.0
2018-Jun-16 20:28N 37°52' W 122°29'0 0.0
2018-Jun-16 19:58N 37°52' W 122°29'0 0.0
2018-Jun-16 19:28N 37°52' W 122°29'0 0.0
2018-Jun-16 18:58N 37°52' W 122°29'0 0.0
2018-Jun-16 18:28N 37°52' W 122°29'0 0.0
2018-Jun-16 17:58N 37°52' W 122°29'0 0.0
2018-Jun-16 17:28N 37°52' W 122°29'0 0.0
2018-Jun-16 16:58N 37°52' W 122°29'0 0.0
2018-Jun-16 16:28N 37°52' W 122°29'0 0.0
2018-Jun-16 15:58N 37°52' W 122°29'0 0.0
2018-Jun-16 15:28N 37°52' W 122°29'0 0.0
2018-Jun-16 14:58N 37°52' W 122°29'0 0.0
2018-Jun-16 14:28N 37°52' W 122°29'0 0.0
2018-Jun-16 13:58N 37°52' W 122°29'0 0.0
2018-Jun-16 13:28N 37°52' W 122°29'0 0.0
2018-Jun-16 12:58N 37°52' W 122°29'0 0.0
2018-Jun-16 12:28N 37°52' W 122°29'0 0.0
2018-Jun-16 11:58N 37°52' W 122°29'0 0.0
2018-Jun-16 11:28N 37°52' W 122°29'0 0.0
2018-Jun-16 10:58N 37°52' W 122°29'0 0.0
2018-Jun-16 10:28N 37°52' W 122°29'0 0.0
2018-Jun-16 09:58N 37°52' W 122°29'0 0.0
2018-Jun-16 09:28N 37°52' W 122°29'0 0.0
2018-Jun-16 08:58N 37°52' W 122°29'0 0.0
2018-Jun-16 08:28N 37°52' W 122°29'0 0.0
2018-Jun-16 07:58N 37°52' W 122°29'0 0.0
2018-Jun-16 07:28N 37°52' W 122°29'0 0.0
2018-Jun-16 06:58N 37°52' W 122°29'0 0.0
2018-Jun-16 06:28N 37°52' W 122°29'0 0.0
2018-Jun-16 05:58N 37°52' W 122°29'0 0.0
2018-Jun-16 05:28N 37°52' W 122°29'0 0.0
2018-Jun-16 04:58N 37°52' W 122°29'0 0.0
2018-Jun-16 04:28N 37°52' W 122°29'0 0.0
2018-Jun-16 03:58N 37°52' W 122°29'0 0.0
2018-Jun-16 03:28N 37°52' W 122°29'0 0.0
2018-Jun-16 02:58N 37°52' W 122°29'0 0.0
2018-Jun-16 02:28N 37°52' W 122°29'0 0.0
2018-Jun-16 01:58N 37°52' W 122°29'0 0.0
2018-Jun-16 01:28N 37°52' W 122°29'0 0.0
2018-Jun-16 00:58N 37°52' W 122°29'0 0.0
2018-Jun-16 00:28N 37°52' W 122°29'0 0.0
2018-Jun-15 23:58N 37°52' W 122°29'0 0.0
2018-Jun-15 23:28N 37°52' W 122°29'0 0.0
2018-Jun-15 22:58N 37°52' W 122°29'0 0.0
2018-Jun-15 22:29N 37°52' W 122°29'2 3.9
2018-Jun-15 22:00N 37°51' W 122°27'611.5
2018-Jun-15 21:30N 37°48' W 122°21'4 7.0
2018-Jun-15 21:01N 37°48' W 122°17'0 0.0
2018-Jun-15 20:30N 37°48' W 122°17'0 0.0
2018-Jun-15 20:00N 37°48' W 122°17'0 0.0
2018-Jun-15 19:30N 37°48' W 122°17'0 0.0
2018-Jun-15 19:00N 37°48' W 122°17'0 0.0
2018-Jun-15 18:31N 37°48' W 122°17'0 0.0
2018-Jun-15 18:01N 37°48' W 122°17'1 2.8
2018-Jun-15 17:30N 37°48' W 122°18'611.6
2018-Jun-15 17:00N 37°49' W 122°25'1 2.3
2018-Jun-15 16:30N 37°49' W 122°24'4 8.1
2018-Jun-15 16:00N 37°49' W 122°29'4 8.7
2018-Jun-15 15:30N 37°46' W 122°33'610.3
2018-Jun-15 14:56N 37°40' W 122°34'410.7
2018-Jun-15 14:30N 37°36' W 122°34'510.3
2018-Jun-15 14:01N 37°31' W 122°34'510.0
2018-Jun-15 13:30N 37°26' W 122°32'510.1
2018-Jun-15 13:01N 37°21' W 122°30'510.3
2018-Jun-15 12:30N 37°16' W 122°29'6 9.9
2018-Jun-15 11:56N 37°11' W 122°27'12711.5
2018-Jun-15 00:52N 35°20' W 121°10'512.8
2018-Jun-15 00:31N 35°16' W 121°07'712.7
2018-Jun-14 23:59N 35°10' W 121°03'612.5
2018-Jun-14 23:30N 35°05' W 120°59'612.4
2018-Jun-14 23:01N 34°59' W 120°56'612.3
2018-Jun-14 22:31N 34°54' W 120°53'612.3
2018-Jun-14 22:00N 34°48' W 120°50'612.3
2018-Jun-14 21:30N 34°42' W 120°47'612.2
2018-Jun-14 21:00N 34°36' W 120°45'612.0
2018-Jun-14 20:31N 34°31' W 120°41'612.2
2018-Jun-14 20:00N 34°27' W 120°36'612.9
2018-Jun-14 19:30N 34°24' W 120°29'713.5
2018-Jun-14 19:01N 34°21' W 120°22'713.6
2018-Jun-14 18:28N 34°20' W 120°13'613.1
2018-Jun-14 18:00N 34°19' W 120°05'713.3
2018-Jun-14 17:29N 34°19' W 119°57'612.7
2018-Jun-14 16:59N 34°18' W 119°50'612.8
2018-Jun-14 16:30N 34°17' W 119°42'712.8
2018-Jun-14 15:58N 34°16' W 119°34'612.8
2018-Jun-14 15:29N 34°15' W 119°26'612.7
2018-Jun-14 15:00N 34°14' W 119°19'3 5.7
2018-Jun-14 14:30N 34°14' W 119°16'0 0.0
2018-Jun-14 12:40N 34°14' W 119°16'0 0.0
2018-Jun-14 12:22N 34°14' W 119°16'0 0.0
2018-Jun-14 11:55N 34°14' W 119°16'0 0.0
2018-Jun-14 11:25N 34°14' W 119°16'0 0.0
2018-Jun-14 10:49N 34°14' W 119°16'0 0.0
2018-Jun-14 10:13N 34°14' W 119°16'0 0.0
2018-Jun-14 09:58N 34°14' W 119°16'0 0.0
2018-Jun-14 09:22N 34°14' W 119°16'0 0.0
2018-Jun-14 08:55N 34°14' W 119°16'0 0.0
2018-Jun-14 08:16N 34°14' W 119°16'0 0.0
2018-Jun-14 07:58N 34°14' W 119°16'0 0.0
2018-Jun-14 06:52N 34°14' W 119°16'0 0.0
2018-Jun-14 06:28N 34°14' W 119°16'0 0.0
2018-Jun-14 05:49N 34°14' W 119°16'0 0.0
2018-Jun-14 05:28N 34°14' W 119°16'0 0.0
2018-Jun-14 04:46N 34°14' W 119°16'0 0.0
2018-Jun-14 04:25N 34°14' W 119°16'0 0.0
2018-Jun-14 03:55N 34°14' W 119°16'0 0.0
2018-Jun-14 03:28N 34°14' W 119°16'0 0.0
2018-Jun-14 02:58N 34°14' W 119°16'0 0.0
2018-Jun-14 02:13N 34°14' W 119°16'0 0.0
2018-Jun-14 01:58N 34°14' W 119°16'0 0.0
2018-Jun-14 01:28N 34°14' W 119°16'0 0.0
2018-Jun-14 00:55N 34°14' W 119°16'0 0.0
2018-Jun-14 00:28N 34°14' W 119°16'0 0.0
2018-Jun-13 23:58N 34°14' W 119°16'0 0.0
2018-Jun-13 23:16N 34°14' W 119°16'0 0.0
2018-Jun-13 22:58N 34°14' W 119°16'0 0.0
2018-Jun-13 22:28N 34°14' W 119°16'0 0.0
2018-Jun-13 21:58N 34°14' W 119°16'0 0.0
2018-Jun-13 21:10N 34°14' W 119°16'0 0.0
2018-Jun-13 20:58N 34°14' W 119°16'0 0.0
2018-Jun-13 19:40N 34°14' W 119°16'0 0.0
2018-Jun-13 19:19N 34°14' W 119°16'0 0.0
2018-Jun-13 18:58N 34°14' W 119°16'0 0.0
2018-Jun-13 18:28N 34°14' W 119°16'0 0.0
2018-Jun-13 17:43N 34°14' W 119°16'0 0.0
2018-Jun-13 17:25N 34°14' W 119°16'0 0.0
2018-Jun-13 16:58N 34°14' W 119°16'0 0.0
2018-Jun-13 16:16N 34°14' W 119°16'0 0.0
2018-Jun-13 15:52N 34°14' W 119°16'0 0.0
2018-Jun-13 14:55N 34°14' W 119°16'0 0.0
2018-Jun-13 14:28N 34°14' W 119°16'0 0.0
2018-Jun-13 12:01N 34°14' W 119°16'0 0.0
2018-Jun-13 11:49N 34°14' W 119°16'0 0.0
2018-Jun-13 11:25N 34°14' W 119°16'0 0.0
2018-Jun-13 08:49N 34°14' W 119°16'0 0.0
2018-Jun-13 08:19N 34°14' W 119°16'0 0.0
2018-Jun-13 07:58N 34°14' W 119°16'0 0.0
2018-Jun-13 05:49N 34°14' W 119°16'0 0.0
2018-Jun-13 05:28N 34°14' W 119°16'0 0.0
2018-Jun-13 04:55N 34°14' W 119°16'0 0.0
2018-Jun-13 04:16N 34°14' W 119°16'0 0.0
2018-Jun-13 02:16N 34°14' W 119°16'0 0.0
2018-Jun-13 01:52N 34°14' W 119°16'0 0.0
2018-Jun-13 01:28N 34°14' W 119°16'0 0.0
2018-Jun-13 00:58N 34°14' W 119°16'0 0.0
2018-Jun-13 00:25N 34°14' W 119°16'0 0.0
2018-Jun-13 00:00N 34°14' W 119°16'0 0.0
2018-Jun-12 23:30N 34°14' W 119°16'0 0.0
2018-Jun-12 23:00N 34°14' W 119°16'0 0.0
2018-Jun-12 22:30N 34°14' W 119°16'0 0.0
2018-Jun-12 22:00N 34°14' W 119°16'0 0.0
2018-Jun-12 21:31N 34°14' W 119°16'0 0.0
2018-Jun-12 21:00N 34°14' W 119°16'0 0.0
2018-Jun-12 20:30N 34°14' W 119°16'0 0.0
2018-Jun-12 20:00N 34°14' W 119°16'0 0.0
2018-Jun-12 19:30N 34°14' W 119°16'0 0.0
2018-Jun-12 19:00N 34°14' W 119°16'0 0.3
2018-Jun-12 18:28N 34°15' W 119°16'4 7.6
2018-Jun-12 17:59N 34°11' W 119°18'611.8
2018-Jun-12 17:30N 34°06' W 119°16'713.2
2018-Jun-12 17:00N 34°01' W 119°10'611.3
2018-Jun-12 16:30N 33°57' W 119°06'611.4
2018-Jun-12 16:00N 33°54' W 119°00'611.3
2018-Jun-12 15:30N 33°50' W 118°55'611.4
2018-Jun-12 15:00N 33°47' W 118°49'611.5
2018-Jun-12 14:29N 33°43' W 118°44'811.3
2018-Jun-12 13:46N 33°38' W 118°36'311.2
2018-Jun-12 13:30N 33°36' W 118°34'611.3
2018-Jun-12 13:00N 33°32' W 118°29'2011.3
2018-Jun-12 11:13N 33°19' W 118°10'511.3
2018-Jun-12 10:47N 33°16' W 118°06'311.1
2018-Jun-12 10:29N 33°13' W 118°03'511.2
2018-Jun-12 10:00N 33°10' W 117°58'1211.2
2018-Jun-12 08:58N 33°02' W 117°48'510.9
2018-Jun-12 08:30N 32°58' W 117°44'611.1
2018-Jun-12 07:59N 32°55' W 117°38'511.0
2018-Jun-12 07:31N 32°51' W 117°34'611.1
2018-Jun-12 07:00N 32°47' W 117°29'611.4
2018-Jun-12 06:31N 32°44' W 117°24'  

Dump ship's entire track history